Map

Track Data

SID SEASON NUMBER BASIN SUBBASIN NAME ISO_TIME NATURE LAT LON WMO_WIND WMO_PRES WMO_AGENCY TRACK_TYPE DIST2LAND LANDFALL IFLAG USA_AGENCY USA_ATCF_ID USA_LAT USA_LON USA_RECORD USA_STATUS USA_WIND USA_PRES USA_SSHS USA_R34_NE USA_R34_SE USA_R34_SW USA_R34_NW USA_R50_NE USA_R50_SE USA_R50_SW USA_R50_NW USA_R64_NE USA_R64_SE USA_R64_SW USA_R64_NW USA_POCI USA_ROCI USA_RMW USA_EYE TOKYO_LAT TOKYO_LON TOKYO_GRADE TOKYO_WIND TOKYO_PRES TOKYO_R50_DIR TOKYO_R50_LONG TOKYO_R50_SHORT TOKYO_R30_DIR TOKYO_R30_LONG TOKYO_R30_SHORT TOKYO_LAND CMA_LAT CMA_LON CMA_CAT CMA_WIND CMA_PRES HKO_LAT HKO_LON HKO_CAT HKO_WIND HKO_PRES NEWDELHI_LAT NEWDELHI_LON NEWDELHI_GRADE NEWDELHI_WIND NEWDELHI_PRES NEWDELHI_CI NEWDELHI_DP NEWDELHI_POCI REUNION_LAT REUNION_LON REUNION_TYPE REUNION_WIND REUNION_PRES REUNION_TNUM REUNION_CI REUNION_RMW REUNION_R34_NE REUNION_R34_SE REUNION_R34_SW REUNION_R34_NW REUNION_R50_NE REUNION_R50_SE REUNION_R50_SW REUNION_R50_NW REUNION_R64_NE REUNION_R64_SE REUNION_R64_SW REUNION_R64_NW BOM_LAT BOM_LON BOM_TYPE BOM_WIND BOM_PRES BOM_TNUM BOM_CI BOM_RMW BOM_R34_NE BOM_R34_SE BOM_R34_SW BOM_R34_NW BOM_R50_NE BOM_R50_SE BOM_R50_SW BOM_R50_NW BOM_R64_NE BOM_R64_SE BOM_R64_SW BOM_R64_NW BOM_ROCI BOM_POCI BOM_EYE BOM_POS_METHOD BOM_PRES_METHOD NADI_LAT NADI_LON NADI_CAT NADI_WIND NADI_PRES WELLINGTON_LAT WELLINGTON_LON WELLINGTON_WIND WELLINGTON_PRES DS824_LAT DS824_LON DS824_STAGE DS824_WIND DS824_PRES TD9636_LAT TD9636_LON TD9636_STAGE TD9636_WIND TD9636_PRES TD9635_LAT TD9635_LON TD9635_WIND TD9635_PRES TD9635_ROCI NEUMANN_LAT NEUMANN_LON NEUMANN_CLASS NEUMANN_WIND NEUMANN_PRES MLC_LAT MLC_LON MLC_CLASS MLC_WIND MLC_PRES USA_GUST BOM_GUST BOM_GUST_PER REUNION_GUST REUNION_GUST_PER USA_SEAHGT USA_SEARAD_NE USA_SEARAD_SE USA_SEARAD_SW USA_SEARAD_NW STORM_SPEED STORM_DIR
1958164N12146 1958 42 WP MM SUSAN 1958-06-13 00:00:00 TS 12.0833 146.267 1005 tokyo main 1591 1591 OOO______OOO__ jtwc_wp WP041958 12.1000 146.400 30 -1 12.0000 145.500 2 1005 0 0 0 12.1000 146.500 0 1005 12.1000 146.400 TC 30 12.1000 146.400 1 30 12.1000 146.400 30 1007 120 10 313
1958164N12146 1958 42 WP MM SUSAN 1958-06-13 03:00:00 TS 12.4174 145.894 main 1626 1626 PPP______PPP__ WP041958 12.4250 146.025 30 -1 12.3551 145.250 2 1002 0 0 12.4100 146.082 0 1005 12.4250 146.025 TC 30 12.4645 145.959 1 30 12.4250 146.025 30 1006 120 11 314
1958164N12146 1958 42 WP MM SUSAN 1958-06-13 06:00:00 TS 12.8088 145.486 1000 tokyo main 1673 1673 OOO______OPO__ jtwc_wp WP041958 12.8000 145.600 30 -1 12.8000 145.000 2 1000 0 0 0 12.8000 145.600 1 29 1005 12.8000 145.600 TC 30 12.8529 145.515 1 30 12.8000 145.600 30 1006 120 12 316
1958164N12146 1958 42 WP MM SUSAN 1958-06-13 09:00:00 TS 13.2971 145.021 main 1734 1734 PPP______PPP__ WP041958 13.2626 145.100 30 -1 13.3850 144.750 2 1000 0 0 13.3201 145.015 1 33 1003 13.2626 145.100 TC 30 13.2899 145.063 1 30 13.2626 145.100 30 1004 150 14 319
1958164N12146 1958 42 WP MM SUSAN 1958-06-13 12:00:00 TS 13.8500 144.550 1000 tokyo main 1806 1796 OOO______OOO__ jtwc_wp WP041958 13.8000 144.600 30 -1 14.0000 144.500 2 1000 0 0 0 13.9000 144.400 2 38 1002 13.8000 144.600 TC 30 13.8000 144.600 1 30 13.8000 144.600 30 1002 180 14 322
1958164N12146 1958 42 WP MM SUSAN 1958-06-13 15:00:00 TS 14.4168 144.122 main 1868 1868 PPP______PPP__ WP041958 14.3773 144.192 32 -1 14.5149 144.265 2 1000 0 0 14.4577 143.760 2 43 1000 14.3773 144.192 TC 32 14.3960 144.128 1 36 14.3773 144.192 32 1000 210 14 325
1958164N12146 1958 42 WP MM SUSAN 1958-06-13 18:00:00 TS 15.0071 143.728 1000 tokyo main 1942 1942 OOO______OPO__ jtwc_wp WP041958 15.0000 143.800 35 0 15.0000 144.000 2 1000 0 0 0 15.0000 143.300 3 48 998 15.0000 143.800 TC 35 15.0428 143.669 1 42 15.0000 143.800 35 998 240 14 328
1958164N12146 1958 42 WP MM SUSAN 1958-06-13 21:00:00 TS 15.6160 143.351 main 1969 1938 PPP______PPP__ WP041958 15.6727 143.313 45 0 15.4851 143.650 2 997 0 0 15.4997 143.269 3 48 997 15.6727 143.313 TC 45 15.6931 143.250 1 48 15.6727 143.313 45 997 240 14 331
1958164N12146 1958 42 WP MM SUSAN 1958-06-14 00:00:00 TS 16.2000 143.033 995 tokyo main 1938 1927 OOO______OOO__ jtwc_wp WP041958 16.3000 142.900 55 0 16.0000 143.300 9 995 0 0 0 16.0000 143.300 3 48 996 16.3000 142.900 TC 55 16.3000 142.900 2 55 16.3000 142.900 55 997 240 12 334
1958164N12146 1958 42 WP MM SUSAN 1958-06-14 03:00:00 TS 16.7204 142.798 main 1929 1919 PPP______PPP__ WP041958 16.7798 142.712 57 0 16.6299 143.035 9 992 0 0 16.5577 142.981 3 53 994 16.7798 142.712 TC 57 16.7957 142.640 2 58 16.7798 142.712 58 995 210 11 338
1958164N12146 1958 42 WP MM SUSAN 1958-06-14 06:00:00 TS 17.1907 142.609 990 tokyo main 1922 1883 OOO______OPO__ jtwc_wp WP041958 17.2000 142.600 60 0 17.2000 142.800 9 990 0 0 0 17.1000 142.600 3 58 992 17.2000 142.600 TC 60 17.2443 142.451 2 62 17.2000 142.600 62 994 180 10 337
1958164N12146 1958 42 WP MM SUSAN 1958-06-14 09:00:00 TS 17.6118 142.398 main 1883 1834 PPP______PPP__ WP041958 17.6425 142.393 65 1 17.5150 142.535 9 990 0 0 17.5574 142.362 3 58 992 17.6425 142.393 TC 65 17.6709 142.312 2 66 17.6425 142.393 66 992 180 9 336
1958164N12146 1958 42 WP MM SUSAN 1958-06-14 12:00:00 TS 18.0333 142.217 990 tokyo main 1834 1778 OOO______OOO__ jtwc_wp WP041958 18.1000 142.200 70 1 17.8000 142.300 9 990 0 0 0 18.0000 142.200 3 58 993 18.1000 142.200 TC 70 18.1000 142.200 3 70 18.1000 142.200 70 990 180 10 342
1958164N12146 1958 42 WP MM SUSAN 1958-06-14 15:00:00 TS 18.5230 142.087 main 1778 1722 PPP______PPP__ WP041958 18.6000 142.085 70 1 18.2625 142.127 9 990 0 0 18.5000 142.085 3 58 993 18.6000 142.085 TC 70 18.5759 142.054 3 72 18.6000 142.085 70 988 180 10 348
1958164N12146 1958 42 WP MM SUSAN 1958-06-14 18:00:00 TS 19.0262 141.989 990 tokyo main 1722 1665 OOO______OPO__ jtwc_wp WP041958 19.1000 142.000 70 1 18.8000 142.000 9 990 0 0 0 19.0000 142.000 3 58 994 19.1000 142.000 TC 70 19.0574 141.933 3 75 19.1000 142.000 70 986 180 10 348
1958164N12146 1958 42 WP MM SUSAN 1958-06-14 21:00:00 TS 19.5213 141.868 main 1665 1620 PPP______PPP__ WP041958 19.5875 141.878 75 1 19.3650 141.863 9 990 0 0 19.4650 141.870 3 63 992 19.5875 141.878 TC 75 19.5353 141.845 3 77 19.5875 141.878 75 983 180 10 349
1958164N12146 1958 42 WP MM SUSAN 1958-06-15 00:00:00 TS 19.9667 141.800 990 tokyo main 1609 1578 OOO______OOO__ jtwc_wp WP041958 20.0000 141.800 80 1 19.9000 141.800 9 990 0 0 0 19.9000 141.800 4 68 990 20.0000 141.800 TC 80 20.0000 141.800 4 80 20.0000 141.800 80 981 180 8 356
1958164N12146 1958 42 WP MM SUSAN 1958-06-15 03:00:00 TS 20.2829 141.839 main 1578 1550 PPP______PPP__ WP041958 20.2275 141.827 85 2 20.3075 141.877 9 987 0 0 20.2925 141.877 4 77 987 20.2275 141.827 TC 85 20.4150 141.795 4 83 20.2275 141.827 85 978 180 7 10
1958164N12146 1958 42 WP MM SUSAN 1958-06-15 06:00:00 TS 20.6200 141.922 985 tokyo main 1550 1502 OOO______OPO__ jtwc_wp WP041958 20.5000 141.900 90 2 20.7000 142.000 9 985 0 0 0 20.7000 142.000 5 87 984 20.5000 141.900 TC 90 20.8199 141.833 4 87 20.5000 141.900 90 976 180 9 8
1958164N12146 1958 42 WP MM SUSAN 1958-06-15 09:00:00 TS 21.1254 141.975 main 1502 1441 PPP______PPP__ WP041958 21.0550 141.943 92 2 21.1775 142.058 9 985 0 0 21.1700 142.058 5 82 986 21.0550 141.943 TC 92 21.2400 141.904 4 91 21.0550 141.943 92 978 210 11 5
1958164N12146 1958 42 WP MM SUSAN 1958-06-15 12:00:00 TS 21.7000 142.033 985 tokyo main 1441 1394 OOO______OOO__ jtwc_wp WP041958 21.7000 142.000 95 2 21.7000 142.100 9 985 0 0 0 21.7000 142.100 4 77 988 21.7000 142.000 TC 95 21.7000 142.000 4 95 21.7000 142.000 95 980 240 11 6
1958164N12146 1958 42 WP MM SUSAN 1958-06-15 15:00:00 TS 22.2435 142.095 main 1394 1338 PPP______PPP__ WP041958 22.2500 142.085 97 3 22.2275 142.135 9 985 0 0 22.2925 142.135 4 72 990 22.2500 142.085 TC 97 22.1908 142.045 4 96 22.2500 142.085 97 982 240 11 7
1958164N12146 1958 42 WP MM SUSAN 1958-06-15 18:00:00 TS 22.8049 142.187 985 tokyo main 1338 1293 OOO______OPO__ jtwc_wp WP041958 22.8000 142.200 100 3 22.8000 142.200 9 985 0 0 0 22.9000 142.200 4 68 992 22.8000 142.200 TC 100 22.7292 142.119 4 97 22.8000 142.200 100 985 240 11 10
1958164N12146 1958 42 WP MM SUSAN 1958-06-15 21:00:00 TS 23.3671 142.300 main 1283 1234 PPP______PPP__ WP041958 23.3549 142.313 100 3 23.4049 142.306 9 987 0 0 23.4049 142.298 4 68 992 23.3549 142.313 TC 100 23.3280 142.259 4 98 23.3549 142.313 100 987 210 13 13
1958164N12146 1958 42 WP MM SUSAN 1958-06-16 00:00:00 TS 24.0167 142.500 990 tokyo main 1234 1159 OOO______OOO__ jtwc_wp WP041958 24.0000 142.500 100 3 24.1000 142.500 9 990 0 0 0 24.0000 142.500 4 68 993 24.0000 142.500 TC 100 24.0000 142.500 4 100 24.0000 142.500 100 989 180 15 17
1958164N12146 1958 42 WP MM SUSAN 1958-06-16 03:00:00 TS 24.8284 142.793 main 1159 1074 PPP______PPP__ WP041958 24.8197 142.776 85 2 24.9117 142.739 9 990 0 0 24.8473 142.825 4 68 993 24.8197 142.776 TC 85 24.7521 142.869 4 92 24.8197 142.776 85 990 180 18 21
1958164N12146 1958 42 WP MM SUSAN 1958-06-16 06:00:00 TS 25.7175 143.237 990 tokyo main 1074 1008 OOO______OPO__ jtwc_wp WP041958 25.7000 143.200 70 1 25.8000 143.200 9 990 0 0 0 25.8000 143.300 4 68 993 25.7000 143.200 TC 70 25.5677 143.347 4 84 25.7000 143.200 70 992 180 20 29
1958164N12146 1958 42 WP MM SUSAN 1958-06-16 09:00:00 TS 26.5716 143.869 main 1001 948 PPP______PPP__ WP041958 26.5000 143.791 70 1 26.7241 144.075 9 990 0 0 26.7072 143.883 4 63 994 26.5000 143.791 TC 70 26.4245 143.902 4 76 26.5000 143.791 69 993 180 21 36
1958164N12146 1958 42 WP MM SUSAN 1958-06-16 12:00:00 TS 27.4200 144.620 990 tokyo main 948 904 OOO______OOO__ jtwc_wp WP041958 27.3000 144.500 70 1 27.6000 145.000 9 990 0 0 0 27.6000 144.600 3 58 995 27.3000 144.500 TC 70 27.3000 144.500 4 68 27.3000 144.500 68 995 180 22 37
1958164N12146 1958 42 WP MM SUSAN 1958-06-16 15:00:00 TS 28.2782 145.340 main 895 868 PPP______P_P__ WP041958 28.1953 145.271 57 0 28.3201 145.474 9 992 0 0 28.4719 145.391 3 53 996 28.1953 145.271 TC 57 4 28.1382 145.243 56 996 210 21 38
1958164N12146 1958 42 WP MM SUSAN 1958-06-16 18:00:00 TS 29.0706 146.071 995 tokyo main 865 857 OOO______O_O__ jtwc_wp WP041958 29.0000 146.000 45 0 29.0000 146.000 9 995 0 0 0 29.3000 146.300 3 48 998 29.0000 146.000 TC 45 4 29.0000 146.000 45 998 240 20 43
1958164N12146 1958 42 WP MM SUSAN 1958-06-16 21:00:00 TS 29.7169 146.862 main 863 854 PPP______P____ WP041958 29.5368 146.540 42 0 29.7441 147.039 9 997 0 0 30.0500 147.329 3 43 1000 29.5368 146.540 TC 42 4 19 48
1958164N12146 1958 42 WP MM SUSAN 1958-06-17 00:00:00 TS 30.3250 147.650 1000 tokyo main 872 862 OOO______O____ jtwc_wp WP041958 30.0000 147.000 40 0 30.5000 148.200 9 1000 0 0 0 30.8000 148.400 2 38 1002 30.0000 147.000 TC 40 18 46
1958164N12146 1958 42 WP MM SUSAN 1958-06-17 03:00:00 TS 30.9767 148.354 main 870 863 PPP______P____ WP041958 30.5998 147.500 37 0 31.1342 149.049 9 999 0 0 31.5730 149.368 2 33 1002 30.5998 147.500 TC 37 20 43
1958164N12146 1958 42 WP MM SUSAN 1958-06-17 06:00:00 TS 31.8000 149.257 998 tokyo main 888 882 OOO______O____ jtwc_wp WP041958 31.2000 148.000 35 0 32.0000 150.000 9 998 0 0 0 32.5000 150.400 1 29 1002 31.2000 148.000 TC 35 27 42
1958164N12146 1958 42 WP MM SUSAN 1958-06-17 09:00:00 TS 32.9700 150.461 main 929 929 PPP______P____ WP041958 31.7254 148.499 32 -1 33.4608 151.331 9 998 0 0 33.7237 151.553 1 1002 31.7254 148.499 TC 32 36 43
1958164N12146 1958 42 WP MM SUSAN 1958-06-17 12:00:00 TS 34.4400 152.200 998 tokyo main 1035 1035 OOO______O____ jtwc_wp WP041958 32.2000 149.000 30 -1 35.0000 153.000 9 998 0 0 0 35.0000 153.000 0 1002 32.2000 149.000 TC 30 49 50
1958164N12146 1958 42 WP MM SUSAN 1958-06-17 15:00:00 TS 36.1345 154.967 main 1130 1124 _PP___________ WP041958 -1 36.1525 154.984 9 998 0 0 36.1164 154.951 0 1002 TC 47 57
1958164N12146 1958 42 WP MM SUSAN 1958-06-17 18:00:00 TS 37.0000 157.000 998 tokyo main 1132 1131 _OO___________ -1 37.0000 157.000 9 998 0 0 0 37.0000 157.000 0 1002 31 64
1958164N12146 1958 42 WP MM SUSAN 1958-06-17 21:00:00 TS 37.5302 158.482 main 1158 1154 _PP___________ -1 37.5302 158.482 9 1002 0 0 37.5302 158.482 0 1002 27 68
1958164N12146 1958 42 WP MM SUSAN 1958-06-18 00:00:00 ET 38.0000 160.200 1006 tokyo main 1204 1204 _OO___________ -1 38.0000 160.200 6 1006 0 0 0 38.0000 160.200 9 1002 37 71
1958164N12146 1958 42 WP MM SUSAN 1958-06-18 03:00:00 ET 38.7329 162.867 main 1310 1308 _PP___________ -1 38.7317 162.853 6 1004 0 0 38.7340 162.882 9 1002 47 73
1958164N12146 1958 42 WP MM SUSAN 1958-06-18 06:00:00 ET 39.4000 166.000 1002 tokyo main 1436 1436 _OO___________ -1 39.4000 166.000 6 1002 0 0 0 39.4000 166.000 9 1002 50 79
1958164N12146 1958 42 WP MM SUSAN 1958-06-18 09:00:00 ET 39.7363 169.259 main 1565 1561 _PP___________ -1 39.7391 169.374 6 1004 0 0 39.7334 169.145 9 1003 48 83
1958164N12146 1958 42 WP MM SUSAN 1958-06-18 12:00:00 ET 40.0000 172.200 1006 tokyo main 1690 1690 _OO___________ -1 40.0000 172.400 6 1006 0 0 0 40.0000 172.000 9 1004 39 80
1958164N12146 1958 42 WP MM SUSAN 1958-06-18 15:00:00 ET 40.4358 174.340 main 1764 1743 _PP___________ -1 40.4331 174.486 6 1005 0 0 40.4385 174.195 9 1004 31 71
1958164N12146 1958 42 WP MM SUSAN 1958-06-18 18:00:00 ET 41.0000 176.000 1004 tokyo main 1739 _OO___________ -1 41.0000 176.000 6 1004 0 0 0 41.0000 176.000 9 1004 27 66

Digital Typhoon Data and Search

About IBTrACS Database

This database is a web-friendly format of International Best Track Archive for Climate Stewardship (IBTrACS), a global best track data archive curated by NOAA dating back to 1842.

Updated: 2021-10-08